sensor_id;sensor_type;location;lat;lon;timestamp;pressure;altitude;pressure_sealevel;temperature;humidity
9059;BME280;4564;42.034;25.834;2023-04-08T00:01:34;100527.56;;;6.64;100.00
9059;BME280;4564;42.034;25.834;2023-04-08T00:04:01;100526.00;;;6.61;100.00
9059;BME280;4564;42.034;25.834;2023-04-08T00:06:27;100520.09;;;6.58;100.00
9059;BME280;4564;42.034;25.834;2023-04-08T00:08:55;100517.78;;;6.63;100.00
9059;BME280;4564;42.034;25.834;2023-04-08T00:11:22;100515.94;;;6.63;100.00
9059;BME280;4564;42.034;25.834;2023-04-08T00:13:50;100521.75;;;6.59;100.00
9059;BME280;4564;42.034;25.834;2023-04-08T00:16:18;100519.91;;;6.59;100.00
9059;BME280;4564;42.034;25.834;2023-04-08T00:18:44;100521.47;;;6.62;100.00
9059;BME280;4564;42.034;25.834;2023-04-08T00:21:11;100516.78;;;6.46;100.00
9059;BME280;4564;42.034;25.834;2023-04-08T00:23:40;100512.72;;;6.42;100.00
9059;BME280;4564;42.034;25.834;2023-04-08T00:26:07;100517.03;;;6.35;100.00
9059;BME280;4564;42.034;25.834;2023-04-08T00:28:34;100515.69;;;6.39;100.00
9059;BME280;4564;42.034;25.834;2023-04-08T00:31:00;100510.22;;;6.49;100.00
9059;BME280;4564;42.034;25.834;2023-04-08T00:33:28;100508.84;;;6.45;100.00
9059;BME280;4564;42.034;25.834;2023-04-08T00:35:55;100507.00;;;6.45;100.00
9059;BME280;4564;42.034;25.834;2023-04-08T00:38:21;100508.09;;;6.35;100.00
9059;BME280;4564;42.034;25.834;2023-04-08T00:40:48;100510.84;;;6.43;100.00
9059;BME280;4564;42.034;25.834;2023-04-08T00:43:15;100520.34;;;6.47;100.00
9059;BME280;4564;42.034;25.834;2023-04-08T00:45:45;100517.63;;;6.47;100.00
9059;BME280;4564;42.034;25.834;2023-04-08T00:48:11;100518.03;;;6.34;100.00
9059;BME280;4564;42.034;25.834;2023-04-08T00:50:39;100525.56;;;6.30;100.00
9059;BME280;4564;42.034;25.834;2023-04-08T00:53:06;100535.34;;;6.31;100.00
9059;BME280;4564;42.034;25.834;2023-04-08T00:55:33;100536.25;;;6.22;100.00
9059;BME280;4564;42.034;25.834;2023-04-08T00:57:59;100542.50;;;6.23;100.00
9059;BME280;4564;42.034;25.834;2023-04-08T01:00:26;100541.59;;;6.14;100.00
9059;BME280;4564;42.034;25.834;2023-04-08T01:02:56;100539.03;;;6.13;100.00
9059;BME280;4564;42.034;25.834;2023-04-08T01:05:26;100546.78;;;6.16;100.00
9059;BME280;4564;42.034;25.834;2023-04-08T01:07:55;100537.03;;;6.15;100.00
9059;BME280;4564;42.034;25.834;2023-04-08T01:10:25;100538.72;;;6.33;100.00
9059;BME280;4564;42.034;25.834;2023-04-08T01:12:53;100530.25;;;6.28;99.67
9059;BME280;4564;42.034;25.834;2023-04-08T01:15:20;100539.56;;;6.34;99.98
9059;BME280;4564;42.034;25.834;2023-04-08T01:17:47;100536.97;;;6.24;99.77
9059;BME280;4564;42.034;25.834;2023-04-08T01:20:15;100543.44;;;6.14;100.00
9059;BME280;4564;42.034;25.834;2023-04-08T01:22:45;100539.50;;;6.08;100.00
9059;BME280;4564;42.034;25.834;2023-04-08T01:25:21;100535.84;;;6.00;100.00
9059;BME280;4564;42.034;25.834;2023-04-08T01:27:50;100546.09;;;5.96;100.00
9059;BME280;4564;42.034;25.834;2023-04-08T01:30:20;100547.00;;;5.87;100.00
9059;BME280;4564;42.034;25.834;2023-04-08T01:32:49;100555.34;;;5.84;100.00
9059;BME280;4564;42.034;25.834;2023-04-08T01:35:17;100546.47;;;5.74;100.00
9059;BME280;4564;42.034;25.834;2023-04-08T01:37:44;100545.88;;;5.80;100.00
9059;BME280;4564;42.034;25.834;2023-04-08T01:40:12;100543.31;;;5.78;100.00
9059;BME280;4564;42.034;25.834;2023-04-08T01:42:39;100551.41;;;5.78;100.00
9059;BME280;4564;42.034;25.834;2023-04-08T01:45:07;100549.16;;;5.74;100.00
9059;BME280;4564;42.034;25.834;2023-04-08T01:47:34;100545.41;;;5.67;100.00
9059;BME280;4564;42.034;25.834;2023-04-08T01:50:03;100559.00;;;5.65;100.00
9059;BME280;4564;42.034;25.834;2023-04-08T01:52:30;100560.00;;;5.64;100.00
9059;BME280;4564;42.034;25.834;2023-04-08T01:54:58;100560.69;;;5.66;100.00
9059;BME280;4564;42.034;25.834;2023-04-08T01:57:26;100560.31;;;5.61;100.00
9059;BME280;4564;42.034;25.834;2023-04-08T01:59:58;100558.44;;;5.62;100.00
9059;BME280;4564;42.034;25.834;2023-04-08T02:02:27;100559.59;;;5.59;100.00
9059;BME280;4564;42.034;25.834;2023-04-08T02:04:55;100559.84;;;5.66;100.00
9059;BME280;4564;42.034;25.834;2023-04-08T02:07:21;100566.22;;;5.65;100.00
9059;BME280;4564;42.034;25.834;2023-04-08T02:09:49;100564.38;;;5.65;100.00
9059;BME280;4564;42.034;25.834;2023-04-08T02:12:15;100562.81;;;5.63;100.00
9059;BME280;4564;42.034;25.834;2023-04-08T02:14:42;100568.91;;;5.65;100.00
9059;BME280;4564;42.034;25.834;2023-04-08T02:17:10;100570.63;;;5.66;100.00
9059;BME280;4564;42.034;25.834;2023-04-08T02:19:43;100572.84;;;5.70;100.00
9059;BME280;4564;42.034;25.834;2023-04-08T02:22:11;100568.00;;;5.74;100.00
9059;BME280;4564;42.034;25.834;2023-04-08T02:24:42;100575.63;;;5.78;100.00
9059;BME280;4564;42.034;25.834;2023-04-08T02:27:09;100568.00;;;5.74;100.00
9059;BME280;4564;42.034;25.834;2023-04-08T02:29:36;100563.38;;;5.66;100.00
9059;BME280;4564;42.034;25.834;2023-04-08T02:32:06;100560.97;;;5.63;100.00
9059;BME280;4564;42.034;25.834;2023-04-08T02:34:34;100565.47;;;5.72;100.00
9059;BME280;4564;42.034;25.834;2023-04-08T02:37:04;100573.13;;;5.77;100.00
9059;BME280;4564;42.034;25.834;2023-04-08T02:39:30;100570.81;;;5.82;100.00
9059;BME280;4564;42.034;25.834;2023-04-08T02:41:57;100572.19;;;5.86;100.00
9059;BME280;4564;42.034;25.834;2023-04-08T02:44:24;100564.72;;;5.80;100.00
9059;BME280;4564;42.034;25.834;2023-04-08T02:46:50;100569.72;;;5.75;100.00
9059;BME280;4564;42.034;25.834;2023-04-08T02:49:17;100568.31;;;5.71;100.00
9059;BME280;4564;42.034;25.834;2023-04-08T02:51:43;100573.00;;;5.69;100.00
9059;BME280;4564;42.034;25.834;2023-04-08T02:54:11;100564.25;;;5.67;100.00
9059;BME280;4564;42.034;25.834;2023-04-08T02:56:38;100571.75;;;5.63;100.00
9059;BME280;4564;42.034;25.834;2023-04-08T02:59:05;100564.84;;;5.61;100.00
9059;BME280;4564;42.034;25.834;2023-04-08T03:01:32;100572.59;;;5.64;100.00
9059;BME280;4564;42.034;25.834;2023-04-08T03:03:58;100576.41;;;5.71;100.00
9059;BME280;4564;42.034;25.834;2023-04-08T03:06:25;100577.78;;;5.75;100.00
9059;BME280;4564;42.034;25.834;2023-04-08T03:08:52;100573.13;;;5.67;100.00
9059;BME280;4564;42.034;25.834;2023-04-08T03:11:20;100580.28;;;5.59;100.00
9059;BME280;4564;42.034;25.834;2023-04-08T03:13:46;100584.41;;;5.53;100.00
9059;BME280;4564;42.034;25.834;2023-04-08T03:16:13;100582.03;;;5.50;100.00
9059;BME280;4564;42.034;25.834;2023-04-08T03:18:39;100581.41;;;5.56;100.00
9059;BME280;4564;42.034;25.834;2023-04-08T03:21:06;100587.94;;;5.54;100.00
9059;BME280;4564;42.034;25.834;2023-04-08T03:23:33;100580.28;;;5.59;100.00
9059;BME280;4564;42.034;25.834;2023-04-08T03:25:59;100577.97;;;5.64;100.00
9059;BME280;4564;42.034;25.834;2023-04-08T03:28:27;100585.06;;;5.65;100.00
9059;BME280;4564;42.034;25.834;2023-04-08T03:30:54;100579.94;;;5.71;100.00
9059;BME280;4564;42.034;25.834;2023-04-08T03:33:20;100588.56;;;5.75;100.00
9059;BME280;4564;42.034;25.834;2023-04-08T03:35:47;100589.28;;;5.67;100.00
9059;BME280;4564;42.034;25.834;2023-04-08T03:38:14;100596.81;;;5.64;100.00
9059;BME280;4564;42.034;25.834;2023-04-08T03:40:40;100591.88;;;5.59;100.00
9059;BME280;4564;42.034;25.834;2023-04-08T03:43:07;100597.13;;;5.61;100.00
9059;BME280;4564;42.034;25.834;2023-04-08T03:45:37;100603.19;;;5.63;100.00
9059;BME280;4564;42.034;25.834;2023-04-08T03:48:04;100600.41;;;5.55;100.00
9059;BME280;4564;42.034;25.834;2023-04-08T03:50:30;100608.59;;;5.63;100.00
9059;BME280;4564;42.034;25.834;2023-04-08T03:52:57;100612.25;;;5.62;100.00
9059;BME280;4564;42.034;25.834;2023-04-08T03:55:24;100610.72;;;5.59;100.00
9059;BME280;4564;42.034;25.834;2023-04-08T03:57:50;100612.56;;;5.59;100.00
9059;BME280;4564;42.034;25.834;2023-04-08T04:00:17;100615.31;;;5.49;100.00
9059;BME280;4564;42.034;25.834;2023-04-08T04:02:45;100623.13;;;5.42;100.00
9059;BME280;4564;42.034;25.834;2023-04-08T04:05:11;100621.72;;;5.38;100.00
9059;BME280;4564;42.034;25.834;2023-04-08T04:07:38;100615.63;;;5.36;100.00
9059;BME280;4564;42.034;25.834;2023-04-08T04:10:05;100615.75;;;5.44;100.00
9059;BME280;4564;42.034;25.834;2023-04-08T04:12:32;100620.25;;;5.54;100.00
9059;BME280;4564;42.034;25.834;2023-04-08T04:14:58;100625.59;;;5.63;100.00
9059;BME280;4564;42.034;25.834;2023-04-08T04:17:25;100624.47;;;5.66;100.00
9059;BME280;4564;42.034;25.834;2023-04-08T04:19:53;100623.59;;;5.65;100.00
9059;BME280;4564;42.034;25.834;2023-04-08T04:22:20;100626.03;;;5.59;100.00
9059;BME280;4564;42.034;25.834;2023-04-08T04:24:47;100626.56;;;5.72;100.00
9059;BME280;4564;42.034;25.834;2023-04-08T04:27:13;100613.44;;;5.86;100.00
9059;BME280;4564;42.034;25.834;2023-04-08T04:29:41;100617.28;;;5.84;100.00
9059;BME280;4564;42.034;25.834;2023-04-08T04:32:08;100614.13;;;5.98;100.00
9059;BME280;4564;42.034;25.834;2023-04-08T04:34:35;100611.25;;;6.09;100.00
9059;BME280;4564;42.034;25.834;2023-04-08T04:37:03;100618.63;;;6.07;100.00
9059;BME280;4564;42.034;25.834;2023-04-08T04:39:29;100617.09;;;6.22;99.51
9059;BME280;4564;42.034;25.834;2023-04-08T04:41:56;100617.41;;;6.19;99.56
9059;BME280;4564;42.034;25.834;2023-04-08T04:44:23;100617.50;;;6.27;99.33
9059;BME280;4564;42.034;25.834;2023-04-08T04:46:49;100620.97;;;6.38;98.58
9059;BME280;4564;42.034;25.834;2023-04-08T04:49:16;100625.91;;;6.60;97.61
9059;BME280;4564;42.034;25.834;2023-04-08T04:51:43;100631.22;;;7.05;97.38
9059;BME280;4564;42.034;25.834;2023-04-08T04:54:11;100633.22;;;7.80;94.05
9059;BME280;4564;42.034;25.834;2023-04-08T04:56:37;100639.28;;;8.50;91.79
9059;BME280;4564;42.034;25.834;2023-04-08T04:59:04;100640.69;;;9.03;87.75
9059;BME280;4564;42.034;25.834;2023-04-08T05:01:31;100643.34;;;9.51;84.96
9059;BME280;4564;42.034;25.834;2023-04-08T05:03:57;100644.72;;;10.49;82.10
9059;BME280;4564;42.034;25.834;2023-04-08T05:06:24;100644.41;;;11.21;79.40
9059;BME280;4564;42.034;25.834;2023-04-08T05:08:51;100643.88;;;11.77;76.25
9059;BME280;4564;42.034;25.834;2023-04-08T05:11:20;100638.03;;;12.96;73.54
9059;BME280;4564;42.034;25.834;2023-04-08T05:13:47;100645.38;;;14.35;68.45
9059;BME280;4564;42.034;25.834;2023-04-08T05:16:14;100645.47;;;15.62;62.35
9059;BME280;4564;42.034;25.834;2023-04-08T05:18:40;100647.59;;;16.44;59.21
9059;BME280;4564;42.034;25.834;2023-04-08T05:21:07;100646.41;;;16.20;57.94
9059;BME280;4564;42.034;25.834;2023-04-08T05:23:34;100642.06;;;16.63;57.09
9059;BME280;4564;42.034;25.834;2023-04-08T05:26:00;100643.25;;;18.11;53.48
9059;BME280;4564;42.034;25.834;2023-04-08T05:28:28;100637.84;;;18.59;48.98
9059;BME280;4564;42.034;25.834;2023-04-08T05:30:55;100648.31;;;17.40;51.90
9059;BME280;4564;42.034;25.834;2023-04-08T05:33:22;100643.78;;;17.27;53.41
9059;BME280;4564;42.034;25.834;2023-04-08T05:35:50;100651.28;;;17.38;51.89
9059;BME280;4564;42.034;25.834;2023-04-08T05:38:17;100641.03;;;15.74;56.02
9059;BME280;4564;42.034;25.834;2023-04-08T05:40:43;100644.16;;;15.11;58.87
9059;BME280;4564;42.034;25.834;2023-04-08T05:43:10;100643.25;;;16.23;56.60
9059;BME280;4564;42.034;25.834;2023-04-08T05:45:38;100642.91;;;16.64;53.84
9059;BME280;4564;42.034;25.834;2023-04-08T05:48:05;100636.28;;;16.33;55.61
9059;BME280;4564;42.034;25.834;2023-04-08T05:50:33;100639.31;;;17.01;54.06
9059;BME280;4564;42.034;25.834;2023-04-08T05:53:00;100644.19;;;16.99;53.21
9059;BME280;4564;42.034;25.834;2023-04-08T05:55:27;100634.19;;;17.11;53.98
9059;BME280;4564;42.034;25.834;2023-04-08T05:57:53;100635.78;;;17.50;54.07
9059;BME280;4564;42.034;25.834;2023-04-08T06:00:20;100637.69;;;18.54;49.16
9059;BME280;4564;42.034;25.834;2023-04-08T06:02:48;100642.78;;;18.51;49.39
9059;BME280;4564;42.034;25.834;2023-04-08T06:05:15;100641.56;;;18.10;51.43
9059;BME280;4564;42.034;25.834;2023-04-08T06:07:43;100651.56;;;17.61;51.78
9059;BME280;4564;42.034;25.834;2023-04-08T06:10:10;100643.63;;;17.47;52.56
9059;BME280;4564;42.034;25.834;2023-04-08T06:12:36;100660.47;;;16.94;52.65
9059;BME280;4564;42.034;25.834;2023-04-08T06:15:04;100659.34;;;16.64;51.97
9059;BME280;4564;42.034;25.834;2023-04-08T06:17:30;100653.16;;;16.24;56.97
9059;BME280;4564;42.034;25.834;2023-04-08T06:19:59;100666.97;;;16.49;55.80
9059;BME280;4564;42.034;25.834;2023-04-08T06:22:26;100664.38;;;16.03;56.43
9059;BME280;4564;42.034;25.834;2023-04-08T06:24:53;100663.66;;;16.27;54.81
9059;BME280;4564;42.034;25.834;2023-04-08T06:27:20;100667.91;;;16.29;53.70
9059;BME280;4564;42.034;25.834;2023-04-08T06:29:47;100667.75;;;15.45;56.73
9059;BME280;4564;42.034;25.834;2023-04-08T06:32:14;100665.38;;;15.03;58.92
9059;BME280;4564;42.034;25.834;2023-04-08T06:34:41;100668.38;;;15.34;58.55
9059;BME280;4564;42.034;25.834;2023-04-08T06:37:11;100666.31;;;15.56;56.73
9059;BME280;4564;42.034;25.834;2023-04-08T06:39:38;100670.78;;;14.77;58.39
9059;BME280;4564;42.034;25.834;2023-04-08T06:42:04;100670.72;;;14.22;60.86
9059;BME280;4564;42.034;25.834;2023-04-08T06:44:31;100666.47;;;14.41;60.43
9059;BME280;4564;42.034;25.834;2023-04-08T06:46:58;100671.13;;;13.85;64.37
9059;BME280;4564;42.034;25.834;2023-04-08T06:49:24;100665.47;;;14.68;60.34
9059;BME280;4564;42.034;25.834;2023-04-08T06:51:52;100676.91;;;14.38;61.21
9059;BME280;4564;42.034;25.834;2023-04-08T06:54:23;100668.00;;;14.22;61.68
9059;BME280;4564;42.034;25.834;2023-04-08T06:56:53;100669.81;;;14.09;63.47
9059;BME280;4564;42.034;25.834;2023-04-08T06:59:33;100670.63;;;14.09;63.82
9059;BME280;4564;42.034;25.834;2023-04-08T07:02:19;100675.34;;;14.56;63.22
9059;BME280;4564;42.034;25.834;2023-04-08T07:04:47;100674.84;;;15.00;60.90
9059;BME280;4564;42.034;25.834;2023-04-08T07:07:14;100672.16;;;15.40;58.94
9059;BME280;4564;42.034;25.834;2023-04-08T07:09:44;100672.13;;;15.00;61.02
9059;BME280;4564;42.034;25.834;2023-04-08T07:12:11;100678.63;;;14.99;61.59
9059;BME280;4564;42.034;25.834;2023-04-08T07:14:37;100678.25;;;15.29;60.56
9059;BME280;4564;42.034;25.834;2023-04-08T07:17:04;100685.66;;;15.94;59.15
9059;BME280;4564;42.034;25.834;2023-04-08T07:19:31;100672.06;;;16.38;55.96
9059;BME280;4564;42.034;25.834;2023-04-08T07:21:57;100667.53;;;16.06;59.10
9059;BME280;4564;42.034;25.834;2023-04-08T07:24:24;100667.97;;;15.90;59.10
9059;BME280;4564;42.034;25.834;2023-04-08T07:26:53;100677.94;;;16.49;56.93
9059;BME280;4564;42.034;25.834;2023-04-08T07:29:21;100679.22;;;16.46;57.24
9059;BME280;4564;42.034;25.834;2023-04-08T07:31:47;100674.22;;;16.30;57.60
9059;BME280;4564;42.034;25.834;2023-04-08T07:34:14;100678.84;;;16.29;57.49
9059;BME280;4564;42.034;25.834;2023-04-08T07:36:41;100685.28;;;16.55;57.21
9059;BME280;4564;42.034;25.834;2023-04-08T07:39:07;100684.78;;;16.13;60.89
9059;BME280;4564;42.034;25.834;2023-04-08T07:41:34;100688.50;;;16.38;57.47
9059;BME280;4564;42.034;25.834;2023-04-08T07:44:02;100684.56;;;16.79;57.49
9059;BME280;4564;42.034;25.834;2023-04-08T07:46:29;100685.34;;;16.93;56.23
9059;BME280;4564;42.034;25.834;2023-04-08T07:48:55;100683.63;;;16.98;56.08
9059;BME280;4564;42.034;25.834;2023-04-08T07:51:22;100681.75;;;17.30;56.82
9059;BME280;4564;42.034;25.834;2023-04-08T07:53:49;100690.00;;;17.55;54.68
9059;BME280;4564;42.034;25.834;2023-04-08T07:56:15;100677.31;;;18.28;54.60
9059;BME280;4564;42.034;25.834;2023-04-08T07:58:42;100679.88;;;18.41;53.74
9059;BME280;4564;42.034;25.834;2023-04-08T08:01:17;100675.69;;;18.75;52.49
9059;BME280;4564;42.034;25.834;2023-04-08T08:03:45;100672.97;;;18.57;52.37
9059;BME280;4564;42.034;25.834;2023-04-08T08:06:12;100667.75;;;18.31;52.41
9059;BME280;4564;42.034;25.834;2023-04-08T08:08:38;100666.22;;;18.17;53.83
9059;BME280;4564;42.034;25.834;2023-04-08T08:11:05;100664.03;;;17.82;56.05
9059;BME280;4564;42.034;25.834;2023-04-08T08:13:32;100664.84;;;17.58;54.91
9059;BME280;4564;42.034;25.834;2023-04-08T08:15:59;100666.75;;;17.57;55.80
9059;BME280;4564;42.034;25.834;2023-04-08T08:18:27;100660.25;;;17.27;56.61
9059;BME280;4564;42.034;25.834;2023-04-08T08:20:53;100650.22;;;16.76;57.91
9059;BME280;4564;42.034;25.834;2023-04-08T08:23:20;100653.50;;;16.92;57.70
9059;BME280;4564;42.034;25.834;2023-04-08T08:25:47;100654.53;;;17.29;56.11
9059;BME280;4564;42.034;25.834;2023-04-08T08:28:14;100654.56;;;17.22;56.36
9059;BME280;4564;42.034;25.834;2023-04-08T08:30:40;100647.53;;;16.63;56.74
9059;BME280;4564;42.034;25.834;2023-04-08T08:33:07;100649.34;;;16.25;58.22
9059;BME280;4564;42.034;25.834;2023-04-08T08:35:35;100641.84;;;16.07;60.00
9059;BME280;4564;42.034;25.834;2023-04-08T08:38:02;100644.56;;;16.14;57.82
9059;BME280;4564;42.034;25.834;2023-04-08T08:40:29;100640.19;;;15.80;59.82
9059;BME280;4564;42.034;25.834;2023-04-08T08:42:55;100639.53;;;15.12;60.45
9059;BME280;4564;42.034;25.834;2023-04-08T08:45:23;100639.13;;;15.08;61.85
9059;BME280;4564;42.034;25.834;2023-04-08T08:47:50;100638.09;;;15.36;61.46
9059;BME280;4564;42.034;25.834;2023-04-08T08:50:16;100630.31;;;15.26;61.82
9059;BME280;4564;42.034;25.834;2023-04-08T08:52:48;100630.94;;;15.41;62.44
9059;BME280;4564;42.034;25.834;2023-04-08T08:55:16;100629.88;;;15.16;62.29
9059;BME280;4564;42.034;25.834;2023-04-08T08:57:43;100632.41;;;15.37;61.05
9059;BME280;4564;42.034;25.834;2023-04-08T09:00:11;100627.56;;;15.39;61.81
9059;BME280;4564;42.034;25.834;2023-04-08T09:02:37;100627.97;;;15.30;62.63
9059;BME280;4564;42.034;25.834;2023-04-08T09:05:04;100637.03;;;15.43;61.90
9059;BME280;4564;42.034;25.834;2023-04-08T09:07:34;100633.69;;;15.48;59.92
9059;BME280;4564;42.034;25.834;2023-04-08T09:10:03;100625.50;;;15.55;58.56
9059;BME280;4564;42.034;25.834;2023-04-08T09:12:30;100641.03;;;15.21;60.83
9059;BME280;4564;42.034;25.834;2023-04-08T09:15:04;100630.06;;;14.95;61.99
9059;BME280;4564;42.034;25.834;2023-04-08T09:17:30;100630.06;;;15.01;62.82
9059;BME280;4564;42.034;25.834;2023-04-08T09:20:07;100633.03;;;15.39;61.27
9059;BME280;4564;42.034;25.834;2023-04-08T09:25:32;100635.13;;;15.11;60.09
9059;BME280;4564;42.034;25.834;2023-04-08T09:27:59;100629.66;;;15.18;59.69
9059;BME280;4564;42.034;25.834;2023-04-08T09:30:27;100633.22;;;15.44;59.63
9059;BME280;4564;42.034;25.834;2023-04-08T09:32:54;100623.56;;;15.42;59.17
9059;BME280;4564;42.034;25.834;2023-04-08T09:35:21;100631.34;;;15.84;59.38
9059;BME280;4564;42.034;25.834;2023-04-08T09:37:48;100615.13;;;15.76;58.12
9059;BME280;4564;42.034;25.834;2023-04-08T09:40:15;100620.16;;;15.92;58.67
9059;BME280;4564;42.034;25.834;2023-04-08T09:42:44;100625.41;;;16.01;59.07
9059;BME280;4564;42.034;25.834;2023-04-08T09:45:13;100625.13;;;16.22;58.93
9059;BME280;4564;42.034;25.834;2023-04-08T09:47:41;100627.03;;;16.21;58.12
9059;BME280;4564;42.034;25.834;2023-04-08T09:50:09;100623.97;;;16.49;56.06
9059;BME280;4564;42.034;25.834;2023-04-08T09:52:38;100617.91;;;16.41;56.35
9059;BME280;4564;42.034;25.834;2023-04-08T09:55:07;100622.03;;;16.05;56.45
9059;BME280;4564;42.034;25.834;2023-04-08T09:57:36;100616.19;;;15.82;56.56
9059;BME280;4564;42.034;25.834;2023-04-08T10:00:08;100614.38;;;16.20;55.53
9059;BME280;4564;42.034;25.834;2023-04-08T10:02:38;100618.16;;;16.32;55.17
9059;BME280;4564;42.034;25.834;2023-04-08T10:05:06;100617.72;;;16.35;55.47
9059;BME280;4564;42.034;25.834;2023-04-08T10:07:33;100614.25;;;16.53;55.06
9059;BME280;4564;42.034;25.834;2023-04-08T10:10:00;100614.22;;;17.04;55.15
9059;BME280;4564;42.034;25.834;2023-04-08T10:12:28;100617.41;;;17.26;52.28
9059;BME280;4564;42.034;25.834;2023-04-08T10:17:41;100603.28;;;16.66;52.87
9059;BME280;4564;42.034;25.834;2023-04-08T10:20:10;100611.78;;;16.45;53.59
9059;BME280;4564;42.034;25.834;2023-04-08T10:22:57;100604.91;;;16.23;53.56
9059;BME280;4564;42.034;25.834;2023-04-08T10:25:27;100604.75;;;16.11;52.76
9059;BME280;4564;42.034;25.834;2023-04-08T10:27:54;100606.44;;;16.12;54.03
9059;BME280;4564;42.034;25.834;2023-04-08T10:30:39;100598.06;;;16.52;52.06
9059;BME280;4564;42.034;25.834;2023-04-08T10:33:10;100594.56;;;17.07;51.56
9059;BME280;4564;42.034;25.834;2023-04-08T10:35:37;100597.50;;;17.06;52.01
9059;BME280;4564;42.034;25.834;2023-04-08T10:38:06;100592.31;;;17.23;51.04
9059;BME280;4564;42.034;25.834;2023-04-08T10:40:34;100589.28;;;17.06;51.29
9059;BME280;4564;42.034;25.834;2023-04-08T10:43:01;100594.31;;;16.84;51.49
9059;BME280;4564;42.034;25.834;2023-04-08T10:45:29;100584.66;;;16.75;51.02
9059;BME280;4564;42.034;25.834;2023-04-08T10:47:56;100590.16;;;16.68;50.34
9059;BME280;4564;42.034;25.834;2023-04-08T10:50:24;100587.88;;;16.65;50.57
9059;BME280;4564;42.034;25.834;2023-04-08T10:52:51;100583.44;;;16.58;51.12
9059;BME280;4564;42.034;25.834;2023-04-08T10:55:21;100580.41;;;17.10;49.40
9059;BME280;4564;42.034;25.834;2023-04-08T10:57:48;100574.38;;;17.27;48.77
9059;BME280;4564;42.034;25.834;2023-04-08T11:00:16;100564.72;;;17.67;48.55
9059;BME280;4564;42.034;25.834;2023-04-08T11:02:43;100557.84;;;17.76;49.17
9059;BME280;4564;42.034;25.834;2023-04-08T11:05:10;100566.09;;;17.76;47.83
9059;BME280;4564;42.034;25.834;2023-04-08T11:07:40;100552.56;;;17.56;47.79
9059;BME280;4564;42.034;25.834;2023-04-08T11:10:07;100559.41;;;17.23;48.55
9059;BME280;4564;42.034;25.834;2023-04-08T11:12:34;100557.13;;;17.19;48.87
9059;BME280;4564;42.034;25.834;2023-04-08T11:15:01;100560.25;;;16.98;48.03
9059;BME280;4564;42.034;25.834;2023-04-08T11:17:28;100556.84;;;16.71;48.50
9059;BME280;4564;42.034;25.834;2023-04-08T11:19:55;100561.72;;;16.69;49.12
9059;BME280;4564;42.034;25.834;2023-04-08T11:22:27;100556.19;;;16.76;48.74
9059;BME280;4564;42.034;25.834;2023-04-08T11:24:56;100549.38;;;16.47;53.55
9059;BME280;4564;42.034;25.834;2023-04-08T11:27:23;100555.81;;;16.28;56.02
9059;BME280;4564;42.034;25.834;2023-04-08T11:29:50;100552.00;;;16.29;54.47
9059;BME280;4564;42.034;25.834;2023-04-08T11:32:17;100550.22;;;16.48;53.99
9059;BME280;4564;42.034;25.834;2023-04-08T11:34:44;100545.56;;;16.48;54.30
9059;BME280;4564;42.034;25.834;2023-04-08T11:37:12;100545.59;;;16.42;55.74
9059;BME280;4564;42.034;25.834;2023-04-08T11:39:39;100543.81;;;16.22;57.01
9059;BME280;4564;42.034;25.834;2023-04-08T11:42:08;100541.31;;;16.14;56.47
9059;BME280;4564;42.034;25.834;2023-04-08T11:44:34;100543.31;;;16.38;57.32
9059;BME280;4564;42.034;25.834;2023-04-08T11:47:01;100548.91;;;16.57;57.40
9059;BME280;4564;42.034;25.834;2023-04-08T11:49:35;100545.28;;;16.63;56.05
9059;BME280;4564;42.034;25.834;2023-04-08T11:52:09;100541.00;;;16.73;55.01
9059;BME280;4564;42.034;25.834;2023-04-08T11:54:39;100541.69;;;16.69;55.22
9059;BME280;4564;42.034;25.834;2023-04-08T11:57:08;100531.19;;;16.66;54.33
9059;BME280;4564;42.034;25.834;2023-04-08T11:59:35;100530.78;;;16.56;53.28
9059;BME280;4564;42.034;25.834;2023-04-08T12:02:01;100525.41;;;16.36;53.70
9059;BME280;4564;42.034;25.834;2023-04-08T12:04:28;100521.75;;;16.49;55.25
9059;BME280;4564;42.034;25.834;2023-04-08T12:06:55;100509.47;;;16.20;54.83
9059;BME280;4564;42.034;25.834;2023-04-08T12:09:21;100518.00;;;16.05;56.01
9059;BME280;4564;42.034;25.834;2023-04-08T12:11:48;100507.22;;;16.48;53.19
9059;BME280;4564;42.034;25.834;2023-04-08T12:14:16;100514.34;;;16.56;52.76
9059;BME280;4564;42.034;25.834;2023-04-08T12:16:43;100510.94;;;16.67;51.12
9059;BME280;4564;42.034;25.834;2023-04-08T12:19:09;100512.69;;;16.48;51.34
9059;BME280;4564;42.034;25.834;2023-04-08T12:21:36;100508.63;;;16.64;50.96
9059;BME280;4564;42.034;25.834;2023-04-08T12:24:03;100503.66;;;16.79;50.33
9059;BME280;4564;42.034;25.834;2023-04-08T12:26:30;100508.25;;;16.85;49.60
9059;BME280;4564;42.034;25.834;2023-04-08T12:28:57;100496.59;;;16.58;50.55
9059;BME280;4564;42.034;25.834;2023-04-08T12:31:25;100492.69;;;16.79;50.73
9059;BME280;4564;42.034;25.834;2023-04-08T12:33:52;100498.47;;;16.96;50.21
9059;BME280;4564;42.034;25.834;2023-04-08T12:36:19;100497.97;;;17.05;49.35
9059;BME280;4564;42.034;25.834;2023-04-08T12:38:46;100487.50;;;16.71;50.63
9059;BME280;4564;42.034;25.834;2023-04-08T12:41:13;100491.09;;;16.71;51.38
9059;BME280;4564;42.034;25.834;2023-04-08T12:43:40;100494.31;;;16.87;50.61
9059;BME280;4564;42.034;25.834;2023-04-08T12:46:07;100480.91;;;16.78;50.32
9059;BME280;4564;42.034;25.834;2023-04-08T12:48:35;100486.75;;;17.07;50.02
9059;BME280;4564;42.034;25.834;2023-04-08T12:51:01;100475.13;;;17.11;49.42
9059;BME280;4564;42.034;25.834;2023-04-08T12:53:28;100478.16;;;17.03;51.14
9059;BME280;4564;42.034;25.834;2023-04-08T12:55:55;100479.50;;;16.94;50.99
9059;BME280;4564;42.034;25.834;2023-04-08T12:58:22;100469.94;;;17.03;50.99
9059;BME280;4564;42.034;25.834;2023-04-08T13:00:49;100473.69;;;17.09;51.19
9059;BME280;4564;42.034;25.834;2023-04-08T13:03:16;100469.28;;;17.26;51.06
9059;BME280;4564;42.034;25.834;2023-04-08T13:05:44;100461.41;;;17.11;51.27
9059;BME280;4564;42.034;25.834;2023-04-08T13:08:13;100461.47;;;16.80;51.41